sensor_id;sensor_type;location;lat;lon;timestamp;P1;durP1;ratioP1;P2;durP2;ratioP2
7473;SDS011;3778;42.572;23.426;2023-02-28T00:01:18;51.67;;;19.57;;
7473;SDS011;3778;42.572;23.426;2023-02-28T00:03:45;40.20;;;18.97;;
7473;SDS011;3778;42.572;23.426;2023-02-28T00:06:11;39.10;;;19.13;;
7473;SDS011;3778;42.572;23.426;2023-02-28T00:08:38;37.37;;;17.97;;
7473;SDS011;3778;42.572;23.426;2023-02-28T00:11:06;35.43;;;18.30;;
7473;SDS011;3778;42.572;23.426;2023-02-28T00:13:37;37.03;;;17.47;;
7473;SDS011;3778;42.572;23.426;2023-02-28T00:16:06;31.93;;;16.27;;
7473;SDS011;3778;42.572;23.426;2023-02-28T00:18:35;24.70;;;13.87;;
7473;SDS011;3778;42.572;23.426;2023-02-28T00:21:02;26.13;;;14.10;;
7473;SDS011;3778;42.572;23.426;2023-02-28T00:23:29;35.83;;;15.47;;
7473;SDS011;3778;42.572;23.426;2023-02-28T00:25:56;32.10;;;17.37;;
7473;SDS011;3778;42.572;23.426;2023-02-28T00:28:23;25.97;;;14.43;;
7473;SDS011;3778;42.572;23.426;2023-02-28T00:30:51;30.30;;;15.13;;
7473;SDS011;3778;42.572;23.426;2023-02-28T00:33:18;27.87;;;13.13;;
7473;SDS011;3778;42.572;23.426;2023-02-28T00:35:45;22.53;;;12.97;;
7473;SDS011;3778;42.572;23.426;2023-02-28T00:38:13;25.93;;;12.30;;
7473;SDS011;3778;42.572;23.426;2023-02-28T00:40:40;22.07;;;11.43;;
7473;SDS011;3778;42.572;23.426;2023-02-28T00:43:07;25.20;;;13.00;;
7473;SDS011;3778;42.572;23.426;2023-02-28T00:45:34;27.70;;;12.60;;
7473;SDS011;3778;42.572;23.426;2023-02-28T00:48:02;20.73;;;11.40;;
7473;SDS011;3778;42.572;23.426;2023-02-28T00:50:29;25.43;;;13.20;;
7473;SDS011;3778;42.572;23.426;2023-02-28T00:52:56;23.97;;;11.93;;
7473;SDS011;3778;42.572;23.426;2023-02-28T00:55:23;20.93;;;12.23;;
7473;SDS011;3778;42.572;23.426;2023-02-28T00:57:49;21.60;;;11.83;;
7473;SDS011;3778;42.572;23.426;2023-02-28T01:00:16;25.57;;;10.77;;
7473;SDS011;3778;42.572;23.426;2023-02-28T01:02:43;26.73;;;13.40;;
7473;SDS011;3778;42.572;23.426;2023-02-28T01:05:11;75.17;;;20.63;;
7473;SDS011;3778;42.572;23.426;2023-02-28T01:07:38;39.87;;;18.57;;
7473;SDS011;3778;42.572;23.426;2023-02-28T01:10:05;40.87;;;17.83;;
7473;SDS011;3778;42.572;23.426;2023-02-28T01:12:33;30.97;;;16.13;;
7473;SDS011;3778;42.572;23.426;2023-02-28T01:14:59;35.30;;;17.40;;
7473;SDS011;3778;42.572;23.426;2023-02-28T01:17:26;34.50;;;16.20;;
7473;SDS011;3778;42.572;23.426;2023-02-28T01:19:53;30.80;;;16.47;;
7473;SDS011;3778;42.572;23.426;2023-02-28T01:22:22;36.43;;;16.80;;
7473;SDS011;3778;42.572;23.426;2023-02-28T01:24:49;40.73;;;18.10;;
7473;SDS011;3778;42.572;23.426;2023-02-28T01:27:16;36.47;;;17.80;;
7473;SDS011;3778;42.572;23.426;2023-02-28T01:29:42;45.80;;;19.40;;
7473;SDS011;3778;42.572;23.426;2023-02-28T01:32:09;39.90;;;17.53;;
7473;SDS011;3778;42.572;23.426;2023-02-28T01:34:36;40.97;;;19.80;;
7473;SDS011;3778;42.572;23.426;2023-02-28T01:37:03;41.77;;;17.77;;
7473;SDS011;3778;42.572;23.426;2023-02-28T01:39:31;40.07;;;19.63;;
7473;SDS011;3778;42.572;23.426;2023-02-28T01:41:57;37.77;;;18.50;;
7473;SDS011;3778;42.572;23.426;2023-02-28T01:47:28;32.83;;;16.70;;
7473;SDS011;3778;42.572;23.426;2023-02-28T01:49:57;39.90;;;18.80;;
7473;SDS011;3778;42.572;23.426;2023-02-28T01:52:25;41.87;;;18.17;;
7473;SDS011;3778;42.572;23.426;2023-02-28T01:54:55;41.20;;;19.73;;
7473;SDS011;3778;42.572;23.426;2023-02-28T01:57:26;43.53;;;18.67;;
7473;SDS011;3778;42.572;23.426;2023-02-28T01:59:57;41.70;;;17.03;;
7473;SDS011;3778;42.572;23.426;2023-02-28T02:02:26;31.10;;;14.50;;
7473;SDS011;3778;42.572;23.426;2023-02-28T02:04:55;28.70;;;15.17;;
7473;SDS011;3778;42.572;23.426;2023-02-28T02:07:26;27.60;;;13.10;;
7473;SDS011;3778;42.572;23.426;2023-02-28T02:10:04;108.10;;;18.60;;
7473;SDS011;3778;42.572;23.426;2023-02-28T02:12:44;54.97;;;13.93;;
7473;SDS011;3778;42.572;23.426;2023-02-28T02:15:31;30.43;;;13.00;;
7473;SDS011;3778;42.572;23.426;2023-02-28T02:18:01;29.27;;;14.97;;
7473;SDS011;3778;42.572;23.426;2023-02-28T02:26:55;155.37;;;20.53;;
7473;SDS011;3778;42.572;23.426;2023-02-28T02:29:39;156.63;;;22.07;;
7473;SDS011;3778;42.572;23.426;2023-02-28T02:32:28;43.73;;;15.80;;
7473;SDS011;3778;42.572;23.426;2023-02-28T02:35:14;24.30;;;12.30;;
7473;SDS011;3778;42.572;23.426;2023-02-28T02:37:47;21.97;;;11.77;;
7473;SDS011;3778;42.572;23.426;2023-02-28T02:40:19;23.67;;;10.97;;
7473;SDS011;3778;42.572;23.426;2023-02-28T02:42:49;26.40;;;11.67;;
7473;SDS011;3778;42.572;23.426;2023-02-28T02:45:23;29.27;;;11.83;;
7473;SDS011;3778;42.572;23.426;2023-02-28T02:47:52;28.23;;;13.13;;
7473;SDS011;3778;42.572;23.426;2023-02-28T02:50:24;36.97;;;12.60;;
7473;SDS011;3778;42.572;23.426;2023-02-28T02:52:56;76.03;;;13.47;;
7473;SDS011;3778;42.572;23.426;2023-02-28T02:55:26;60.80;;;14.40;;
7473;SDS011;3778;42.572;23.426;2023-02-28T02:57:54;22.97;;;11.60;;
7473;SDS011;3778;42.572;23.426;2023-02-28T03:00:25;16.47;;;8.93;;
7473;SDS011;3778;42.572;23.426;2023-02-28T03:02:57;19.83;;;9.30;;
7473;SDS011;3778;42.572;23.426;2023-02-28T03:05:27;20.87;;;8.27;;
7473;SDS011;3778;42.572;23.426;2023-02-28T03:07:57;17.80;;;7.97;;
7473;SDS011;3778;42.572;23.426;2023-02-28T03:13:23;12.23;;;6.73;;
7473;SDS011;3778;42.572;23.426;2023-02-28T03:16:14;16.40;;;8.00;;
7473;SDS011;3778;42.572;23.426;2023-02-28T03:19:00;14.93;;;6.67;;
7473;SDS011;3778;42.572;23.426;2023-02-28T03:21:36;17.50;;;7.93;;
7473;SDS011;3778;42.572;23.426;2023-02-28T03:24:10;13.43;;;7.30;;
7473;SDS011;3778;42.572;23.426;2023-02-28T03:26:41;21.57;;;10.70;;
7473;SDS011;3778;42.572;23.426;2023-02-28T03:29:13;14.07;;;7.03;;
7473;SDS011;3778;42.572;23.426;2023-02-28T03:31:47;13.03;;;5.63;;
7473;SDS011;3778;42.572;23.426;2023-02-28T03:34:17;12.67;;;6.33;;
7473;SDS011;3778;42.572;23.426;2023-02-28T03:36:51;13.57;;;6.30;;
7473;SDS011;3778;42.572;23.426;2023-02-28T03:39:22;12.57;;;6.47;;
7473;SDS011;3778;42.572;23.426;2023-02-28T03:41:54;12.23;;;6.77;;
7473;SDS011;3778;42.572;23.426;2023-02-28T03:44:25;15.07;;;7.03;;
7473;SDS011;3778;42.572;23.426;2023-02-28T03:47:00;10.43;;;6.17;;
7473;SDS011;3778;42.572;23.426;2023-02-28T03:49:32;14.53;;;6.90;;
7473;SDS011;3778;42.572;23.426;2023-02-28T03:52:05;14.63;;;6.20;;
7473;SDS011;3778;42.572;23.426;2023-02-28T03:54:35;10.10;;;5.40;;
7473;SDS011;3778;42.572;23.426;2023-02-28T03:57:07;13.10;;;5.47;;
7473;SDS011;3778;42.572;23.426;2023-02-28T03:59:39;11.77;;;5.30;;
7473;SDS011;3778;42.572;23.426;2023-02-28T04:02:10;11.13;;;6.67;;
7473;SDS011;3778;42.572;23.426;2023-02-28T04:04:37;15.13;;;5.73;;
7473;SDS011;3778;42.572;23.426;2023-02-28T04:07:06;10.97;;;6.07;;
7473;SDS011;3778;42.572;23.426;2023-02-28T04:09:37;14.10;;;5.87;;
7473;SDS011;3778;42.572;23.426;2023-02-28T04:12:04;9.33;;;4.60;;
7473;SDS011;3778;42.572;23.426;2023-02-28T04:14:31;11.07;;;6.17;;
7473;SDS011;3778;42.572;23.426;2023-02-28T04:16:58;8.67;;;4.53;;
7473;SDS011;3778;42.572;23.426;2023-02-28T04:19:25;9.20;;;4.60;;
7473;SDS011;3778;42.572;23.426;2023-02-28T04:21:52;14.83;;;5.70;;
7473;SDS011;3778;42.572;23.426;2023-02-28T04:24:21;9.00;;;5.27;;
7473;SDS011;3778;42.572;23.426;2023-02-28T04:26:50;8.63;;;5.40;;
7473;SDS011;3778;42.572;23.426;2023-02-28T04:29:19;10.50;;;5.00;;
7473;SDS011;3778;42.572;23.426;2023-02-28T04:31:46;6.90;;;4.20;;
7473;SDS011;3778;42.572;23.426;2023-02-28T04:34:13;11.10;;;4.63;;
7473;SDS011;3778;42.572;23.426;2023-02-28T04:36:40;9.90;;;5.13;;
7473;SDS011;3778;42.572;23.426;2023-02-28T04:39:07;7.27;;;4.67;;
7473;SDS011;3778;42.572;23.426;2023-02-28T04:41:36;7.37;;;4.93;;
7473;SDS011;3778;42.572;23.426;2023-02-28T04:44:02;7.33;;;3.80;;
7473;SDS011;3778;42.572;23.426;2023-02-28T04:46:29;8.23;;;4.83;;
7473;SDS011;3778;42.572;23.426;2023-02-28T04:48:56;8.57;;;4.67;;
7473;SDS011;3778;42.572;23.426;2023-02-28T04:51:23;9.47;;;4.00;;
7473;SDS011;3778;42.572;23.426;2023-02-28T04:53:50;8.90;;;4.67;;
7473;SDS011;3778;42.572;23.426;2023-02-28T04:56:16;7.87;;;3.83;;
7473;SDS011;3778;42.572;23.426;2023-02-28T04:58:46;6.83;;;3.50;;
7473;SDS011;3778;42.572;23.426;2023-02-28T05:01:18;6.33;;;3.70;;
7473;SDS011;3778;42.572;23.426;2023-02-28T05:03:48;7.00;;;3.50;;
7473;SDS011;3778;42.572;23.426;2023-02-28T05:06:16;6.03;;;3.93;;
7473;SDS011;3778;42.572;23.426;2023-02-28T05:08:43;7.40;;;3.40;;
7473;SDS011;3778;42.572;23.426;2023-02-28T05:11:14;3.87;;;3.27;;
7473;SDS011;3778;42.572;23.426;2023-02-28T05:13:44;7.63;;;3.60;;
7473;SDS011;3778;42.572;23.426;2023-02-28T05:16:12;5.33;;;3.30;;
7473;SDS011;3778;42.572;23.426;2023-02-28T05:18:39;6.03;;;3.53;;
7473;SDS011;3778;42.572;23.426;2023-02-28T05:21:12;5.60;;;3.43;;
7473;SDS011;3778;42.572;23.426;2023-02-28T05:23:50;7.60;;;3.47;;
7473;SDS011;3778;42.572;23.426;2023-02-28T05:26:17;5.97;;;3.37;;
7473;SDS011;3778;42.572;23.426;2023-02-28T05:28:43;7.57;;;3.77;;
7473;SDS011;3778;42.572;23.426;2023-02-28T05:31:11;6.33;;;3.20;;
7473;SDS011;3778;42.572;23.426;2023-02-28T05:33:39;7.00;;;3.33;;
7473;SDS011;3778;42.572;23.426;2023-02-28T05:36:06;4.77;;;3.37;;
7473;SDS011;3778;42.572;23.426;2023-02-28T05:38:33;6.87;;;3.43;;
7473;SDS011;3778;42.572;23.426;2023-02-28T05:41:00;5.73;;;3.03;;
7473;SDS011;3778;42.572;23.426;2023-02-28T05:43:30;5.37;;;2.53;;
7473;SDS011;3778;42.572;23.426;2023-02-28T05:45:57;5.67;;;2.97;;
7473;SDS011;3778;42.572;23.426;2023-02-28T05:48:25;6.57;;;2.90;;
7473;SDS011;3778;42.572;23.426;2023-02-28T05:50:52;5.33;;;2.97;;
7473;SDS011;3778;42.572;23.426;2023-02-28T05:53:18;5.13;;;3.17;;
7473;SDS011;3778;42.572;23.426;2023-02-28T05:55:45;5.27;;;2.90;;
7473;SDS011;3778;42.572;23.426;2023-02-28T05:58:12;4.80;;;2.90;;
7473;SDS011;3778;42.572;23.426;2023-02-28T06:00:39;9.97;;;3.63;;
7473;SDS011;3778;42.572;23.426;2023-02-28T06:03:06;7.63;;;3.27;;
7473;SDS011;3778;42.572;23.426;2023-02-28T06:05:34;6.57;;;3.47;;
7473;SDS011;3778;42.572;23.426;2023-02-28T06:08:00;4.70;;;2.97;;
7473;SDS011;3778;42.572;23.426;2023-02-28T06:10:27;5.20;;;2.83;;
7473;SDS011;3778;42.572;23.426;2023-02-28T06:12:54;7.77;;;2.73;;
7473;SDS011;3778;42.572;23.426;2023-02-28T06:15:20;9.60;;;2.80;;
7473;SDS011;3778;42.572;23.426;2023-02-28T06:17:47;6.67;;;3.23;;
7473;SDS011;3778;42.572;23.426;2023-02-28T06:20:14;7.40;;;3.47;;
7473;SDS011;3778;42.572;23.426;2023-02-28T06:22:42;7.10;;;3.27;;
7473;SDS011;3778;42.572;23.426;2023-02-28T06:25:09;5.83;;;3.33;;
7473;SDS011;3778;42.572;23.426;2023-02-28T06:27:36;5.87;;;3.27;;
7473;SDS011;3778;42.572;23.426;2023-02-28T06:30:03;7.87;;;3.27;;
7473;SDS011;3778;42.572;23.426;2023-02-28T06:32:30;8.17;;;3.70;;
7473;SDS011;3778;42.572;23.426;2023-02-28T06:34:57;8.37;;;4.00;;
7473;SDS011;3778;42.572;23.426;2023-02-28T06:37:24;8.40;;;3.97;;
7473;SDS011;3778;42.572;23.426;2023-02-28T06:39:53;8.27;;;4.53;;
7473;SDS011;3778;42.572;23.426;2023-02-28T06:42:21;15.07;;;5.33;;
7473;SDS011;3778;42.572;23.426;2023-02-28T06:44:49;8.57;;;3.97;;
7473;SDS011;3778;42.572;23.426;2023-02-28T06:47:16;14.13;;;5.33;;
7473;SDS011;3778;42.572;23.426;2023-02-28T06:49:43;16.77;;;5.23;;
7473;SDS011;3778;42.572;23.426;2023-02-28T06:52:10;17.70;;;5.07;;
7473;SDS011;3778;42.572;23.426;2023-02-28T06:54:37;8.07;;;3.80;;
7473;SDS011;3778;42.572;23.426;2023-02-28T06:57:05;12.47;;;4.97;;
7473;SDS011;3778;42.572;23.426;2023-02-28T06:59:32;13.20;;;4.90;;
7473;SDS011;3778;42.572;23.426;2023-02-28T07:02:00;15.90;;;6.00;;
7473;SDS011;3778;42.572;23.426;2023-02-28T07:04:27;15.70;;;5.43;;
7473;SDS011;3778;42.572;23.426;2023-02-28T07:06:54;31.37;;;6.13;;
7473;SDS011;3778;42.572;23.426;2023-02-28T07:09:21;13.97;;;6.60;;
7473;SDS011;3778;42.572;23.426;2023-02-28T07:11:47;11.07;;;6.07;;
7473;SDS011;3778;42.572;23.426;2023-02-28T07:14:15;12.47;;;5.93;;
7473;SDS011;3778;42.572;23.426;2023-02-28T07:16:42;14.93;;;6.53;;
7473;SDS011;3778;42.572;23.426;2023-02-28T07:19:10;12.77;;;5.83;;
7473;SDS011;3778;42.572;23.426;2023-02-28T07:21:37;15.73;;;6.23;;
7473;SDS011;3778;42.572;23.426;2023-02-28T07:24:04;16.07;;;7.50;;
7473;SDS011;3778;42.572;23.426;2023-02-28T07:26:31;16.33;;;6.87;;
7473;SDS011;3778;42.572;23.426;2023-02-28T07:28:59;26.80;;;11.27;;
7473;SDS011;3778;42.572;23.426;2023-02-28T07:31:27;28.13;;;10.10;;
7473;SDS011;3778;42.572;23.426;2023-02-28T07:33:54;25.63;;;10.30;;
7473;SDS011;3778;42.572;23.426;2023-02-28T07:36:21;32.73;;;11.87;;
7473;SDS011;3778;42.572;23.426;2023-02-28T07:38:48;20.83;;;10.83;;
7473;SDS011;3778;42.572;23.426;2023-02-28T07:41:16;25.43;;;9.07;;
7473;SDS011;3778;42.572;23.426;2023-02-28T07:43:43;26.03;;;9.20;;
7473;SDS011;3778;42.572;23.426;2023-02-28T07:46:11;20.03;;;10.27;;
7473;SDS011;3778;42.572;23.426;2023-02-28T07:48:41;32.30;;;10.90;;
7473;SDS011;3778;42.572;23.426;2023-02-28T07:51:08;21.67;;;10.77;;
7473;SDS011;3778;42.572;23.426;2023-02-28T07:53:35;26.30;;;9.93;;
7473;SDS011;3778;42.572;23.426;2023-02-28T07:56:02;29.30;;;9.10;;
7473;SDS011;3778;42.572;23.426;2023-02-28T07:58:29;25.23;;;9.77;;
7473;SDS011;3778;42.572;23.426;2023-02-28T08:00:57;29.50;;;11.67;;
7473;SDS011;3778;42.572;23.426;2023-02-28T08:03:30;26.87;;;10.33;;
7473;SDS011;3778;42.572;23.426;2023-02-28T08:05:58;29.80;;;11.23;;
7473;SDS011;3778;42.572;23.426;2023-02-28T08:08:25;27.00;;;10.53;;
7473;SDS011;3778;42.572;23.426;2023-02-28T08:10:54;20.70;;;10.63;;
7473;SDS011;3778;42.572;23.426;2023-02-28T08:13:20;30.33;;;10.53;;
7473;SDS011;3778;42.572;23.426;2023-02-28T08:15:47;34.60;;;11.33;;
7473;SDS011;3778;42.572;23.426;2023-02-28T08:18:14;21.93;;;9.90;;
7473;SDS011;3778;42.572;23.426;2023-02-28T08:20:40;22.77;;;10.63;;
7473;SDS011;3778;42.572;23.426;2023-02-28T08:23:08;18.90;;;10.07;;
7473;SDS011;3778;42.572;23.426;2023-02-28T08:25:35;23.40;;;9.47;;
7473;SDS011;3778;42.572;23.426;2023-02-28T08:28:02;24.23;;;9.33;;
7473;SDS011;3778;42.572;23.426;2023-02-28T08:30:29;13.50;;;8.03;;
7473;SDS011;3778;42.572;23.426;2023-02-28T08:32:56;23.03;;;9.10;;
7473;SDS011;3778;42.572;23.426;2023-02-28T08:35:22;19.43;;;9.40;;
7473;SDS011;3778;42.572;23.426;2023-02-28T08:37:49;16.43;;;7.93;;
7473;SDS011;3778;42.572;23.426;2023-02-28T08:40:18;17.37;;;8.53;;
7473;SDS011;3778;42.572;23.426;2023-02-28T08:42:44;17.93;;;8.63;;
7473;SDS011;3778;42.572;23.426;2023-02-28T08:45:12;22.00;;;8.13;;
7473;SDS011;3778;42.572;23.426;2023-02-28T08:47:39;19.93;;;7.73;;
7473;SDS011;3778;42.572;23.426;2023-02-28T08:50:06;21.07;;;8.60;;
7473;SDS011;3778;42.572;23.426;2023-02-28T08:52:34;19.07;;;8.80;;
7473;SDS011;3778;42.572;23.426;2023-02-28T08:55:00;16.23;;;8.20;;
7473;SDS011;3778;42.572;23.426;2023-02-28T08:57:28;16.80;;;8.50;;
7473;SDS011;3778;42.572;23.426;2023-02-28T08:59:55;18.63;;;7.93;;
7473;SDS011;3778;42.572;23.426;2023-02-28T09:02:22;22.67;;;9.33;;
7473;SDS011;3778;42.572;23.426;2023-02-28T09:04:49;26.10;;;10.80;;
7473;SDS011;3778;42.572;23.426;2023-02-28T09:07:15;17.23;;;9.80;;
7473;SDS011;3778;42.572;23.426;2023-02-28T09:09:42;21.00;;;9.23;;
7473;SDS011;3778;42.572;23.426;2023-02-28T09:12:18;19.80;;;9.60;;
7473;SDS011;3778;42.572;23.426;2023-02-28T09:14:47;20.50;;;8.73;;
7473;SDS011;3778;42.572;23.426;2023-02-28T09:17:13;18.27;;;9.30;;
7473;SDS011;3778;42.572;23.426;2023-02-28T09:19:40;19.53;;;8.37;;
7473;SDS011;3778;42.572;23.426;2023-02-28T09:22:07;16.60;;;9.03;;
7473;SDS011;3778;42.572;23.426;2023-02-28T09:24:35;20.17;;;10.20;;
7473;SDS011;3778;42.572;23.426;2023-02-28T09:27:02;13.03;;;7.83;;
7473;SDS011;3778;42.572;23.426;2023-02-28T09:29:29;18.17;;;8.17;;
7473;SDS011;3778;42.572;23.426;2023-02-28T09:31:57;20.50;;;9.23;;
7473;SDS011;3778;42.572;23.426;2023-02-28T09:34:24;24.10;;;8.10;;
7473;SDS011;3778;42.572;23.426;2023-02-28T09:36:50;25.73;;;8.70;;
7473;SDS011;3778;42.572;23.426;2023-02-28T09:39:20;19.07;;;8.57;;
7473;SDS011;3778;42.572;23.426;2023-02-28T09:41:48;16.47;;;7.70;;
7473;SDS011;3778;42.572;23.426;2023-02-28T09:44:19;20.97;;;8.33;;
7473;SDS011;3778;42.572;23.426;2023-02-28T09:46:54;18.77;;;8.00;;
7473;SDS011;3778;42.572;23.426;2023-02-28T09:49:28;17.00;;;8.73;;
7473;SDS011;3778;42.572;23.426;2023-02-28T09:52:02;24.60;;;7.83;;
7473;SDS011;3778;42.572;23.426;2023-02-28T09:54:34;18.80;;;7.87;;
7473;SDS011;3778;42.572;23.426;2023-02-28T09:57:04;23.13;;;8.50;;
7473;SDS011;3778;42.572;23.426;2023-02-28T10:02:41;15.40;;;7.17;;
7473;SDS011;3778;42.572;23.426;2023-02-28T10:05:19;15.77;;;7.40;;
7473;SDS011;3778;42.572;23.426;2023-02-28T10:08:00;15.07;;;8.07;;
7473;SDS011;3778;42.572;23.426;2023-02-28T10:10:35;22.37;;;8.13;;
7473;SDS011;3778;42.572;23.426;2023-02-28T10:13:05;29.50;;;7.17;;
7473;SDS011;3778;42.572;23.426;2023-02-28T10:15:39;18.30;;;8.50;;
7473;SDS011;3778;42.572;23.426;2023-02-28T10:18:10;18.17;;;7.87;;
7473;SDS011;3778;42.572;23.426;2023-02-28T10:20:39;16.07;;;7.53;;
7473;SDS011;3778;42.572;23.426;2023-02-28T10:23:10;18.23;;;7.93;;
7473;SDS011;3778;42.572;23.426;2023-02-28T10:25:44;21.47;;;8.40;;
7473;SDS011;3778;42.572;23.426;2023-02-28T10:28:16;20.20;;;9.30;;
7473;SDS011;3778;42.572;23.426;2023-02-28T10:30:44;21.57;;;8.63;;
7473;SDS011;3778;42.572;23.426;2023-02-28T10:33:21;19.23;;;8.17;;
7473;SDS011;3778;42.572;23.426;2023-02-28T10:35:50;17.53;;;7.30;;
7473;SDS011;3778;42.572;23.426;2023-02-28T10:38:18;13.77;;;7.30;;
7473;SDS011;3778;42.572;23.426;2023-02-28T10:40:47;15.97;;;7.67;;
7473;SDS011;3778;42.572;23.426;2023-02-28T10:43:21;13.90;;;8.47;;
7473;SDS011;3778;42.572;23.426;2023-02-28T10:45:53;20.87;;;7.77;;
7473;SDS011;3778;42.572;23.426;2023-02-28T10:48:34;29.73;;;10.03;;
7473;SDS011;3778;42.572;23.426;2023-02-28T10:51:04;20.33;;;8.60;;
7473;SDS011;3778;42.572;23.426;2023-02-28T10:53:37;17.53;;;7.93;;
7473;SDS011;3778;42.572;23.426;2023-02-28T10:56:15;18.87;;;8.70;;
7473;SDS011;3778;42.572;23.426;2023-02-28T10:58:48;17.17;;;8.77;;
7473;SDS011;3778;42.572;23.426;2023-02-28T11:01:18;17.37;;;8.03;;
7473;SDS011;3778;42.572;23.426;2023-02-28T11:03:48;21.87;;;8.87;;
7473;SDS011;3778;42.572;23.426;2023-02-28T11:06:17;17.23;;;9.57;;
7473;SDS011;3778;42.572;23.426;2023-02-28T11:08:46;17.30;;;7.70;;
7473;SDS011;3778;42.572;23.426;2023-02-28T11:11:16;23.50;;;8.70;;
7473;SDS011;3778;42.572;23.426;2023-02-28T11:13:44;20.97;;;8.40;;
7473;SDS011;3778;42.572;23.426;2023-02-28T11:16:13;27.00;;;8.80;;
7473;SDS011;3778;42.572;23.426;2023-02-28T11:18:42;12.83;;;8.17;;
7473;SDS011;3778;42.572;23.426;2023-02-28T11:21:18;24.60;;;8.70;;
7473;SDS011;3778;42.572;23.426;2023-02-28T11:23:50;20.57;;;10.03;;
7473;SDS011;3778;42.572;23.426;2023-02-28T11:26:38;28.03;;;11.67;;
7473;SDS011;3778;42.572;23.426;2023-02-28T11:29:12;17.07;;;8.97;;
7473;SDS011;3778;42.572;23.426;2023-02-28T11:31:45;29.47;;;9.67;;
7473;SDS011;3778;42.572;23.426;2023-02-28T11:34:28;22.40;;;9.10;;
7473;SDS011;3778;42.572;23.426;2023-02-28T11:36:57;21.53;;;9.13;;
7473;SDS011;3778;42.572;23.426;2023-02-28T11:39:25;25.10;;;9.93;;
7473;SDS011;3778;42.572;23.426;2023-02-28T11:41:56;23.93;;;9.63;;
7473;SDS011;3778;42.572;23.426;2023-02-28T11:44:48;18.47;;;8.97;;
7473;SDS011;3778;42.572;23.426;2023-02-28T11:47:30;17.70;;;9.93;;
7473;SDS011;3778;42.572;23.426;2023-02-28T11:50:10;18.47;;;9.83;;
7473;SDS011;3778;42.572;23.426;2023-02-28T11:52:48;17.80;;;10.40;;
7473;SDS011;3778;42.572;23.426;2023-02-28T11:55:19;20.40;;;10.43;;
7473;SDS011;3778;42.572;23.426;2023-02-28T12:00:47;23.90;;;10.43;;
7473;SDS011;3778;42.572;23.426;2023-02-28T12:03:28;19.90;;;9.57;;
7473;SDS011;3778;42.572;23.426;2023-02-28T12:06:09;25.20;;;11.50;;
7473;SDS011;3778;42.572;23.426;2023-02-28T12:08:49;22.57;;;10.40;;
7473;SDS011;3778;42.572;23.426;2023-02-28T12:11:30;24.30;;;10.40;;
7473;SDS011;3778;42.572;23.426;2023-02-28T12:14:21;23.53;;;11.07;;
7473;SDS011;3778;42.572;23.426;2023-02-28T12:17:13;27.50;;;10.70;;
7473;SDS011;3778;42.572;23.426;2023-02-28T12:19:49;27.03;;;10.57;;
7473;SDS011;3778;42.572;23.426;2023-02-28T12:22:29;20.37;;;9.73;;
7473;SDS011;3778;42.572;23.426;2023-02-28T12:25:02;23.40;;;10.33;;
7473;SDS011;3778;42.572;23.426;2023-02-28T12:27:51;19.73;;;9.33;;
7473;SDS011;3778;42.572;23.426;2023-02-28T12:30:19;55.83;;;11.30;;
7473;SDS011;3778;42.572;23.426;2023-02-28T12:32:49;28.73;;;10.43;;
7473;SDS011;3778;42.572;23.426;2023-02-28T12:35:22;25.60;;;10.13;;
7473;SDS011;3778;42.572;23.426;2023-02-28T12:37:54;23.37;;;10.50;;
7473;SDS011;3778;42.572;23.426;2023-02-28T12:40:32;17.50;;;10.37;;
7473;SDS011;3778;42.572;23.426;2023-02-28T12:43:07;25.03;;;11.37;;
7473;SDS011;3778;42.572;23.426;2023-02-28T12:45:39;28.60;;;10.57;;
7473;SDS011;3778;42.572;23.426;2023-02-28T12:48:10;20.63;;;10.27;;
7473;SDS011;3778;42.572;23.426;2023-02-28T12:50:41;18.70;;;9.50;;
7473;SDS011;3778;42.572;23.426;2023-02-28T12:53:09;24.17;;;10.53;;
7473;SDS011;3778;42.572;23.426;2023-02-28T12:55:49;21.60;;;8.80;;
7473;SDS011;3778;42.572;23.426;2023-02-28T12:58:25;19.27;;;10.07;;
7473;SDS011;3778;42.572;23.426;2023-02-28T13:04:10;17.23;;;9.23;;
7473;SDS011;3778;42.572;23.426;2023-02-28T13:06:57;21.07;;;9.60;;
7473;SDS011;3778;42.572;23.426;2023-02-28T13:09:34;26.83;;;10.00;;
7473;SDS011;3778;42.572;23.426;2023-02-28T13:12:04;15.57;;;8.60;;
7473;SDS011;3778;42.572;23.426;2023-02-28T13:14:39;19.63;;;9.47;;
7473;SDS011;3778;42.572;23.426;2023-02-28T13:17:10;14.37;;;8.30;;
7473;SDS011;3778;42.572;23.426;2023-02-28T13:19:40;22.33;;;8.43;;
7473;SDS011;3778;42.572;23.426;2023-02-28T13:22:16;18.73;;;8.77;;
7473;SDS011;3778;42.572;23.426;2023-02-28T13:24:46;18.90;;;9.13;;
7473;SDS011;3778;42.572;23.426;2023-02-28T13:27:23;16.50;;;9.07;;
7473;SDS011;3778;42.572;23.426;2023-02-28T13:29:58;21.23;;;9.60;;
7473;SDS011;3778;42.572;23.426;2023-02-28T13:32:35;22.77;;;9.80;;
7473;SDS011;3778;42.572;23.426;2023-02-28T13:35:15;18.83;;;8.50;;
7473;SDS011;3778;42.572;23.426;2023-02-28T13:38:21;16.53;;;9.93;;
7473;SDS011;3778;42.572;23.426;2023-02-28T13:40:50;26.67;;;9.70;;
7473;SDS011;3778;42.572;23.426;2023-02-28T13:43:18;19.37;;;9.10;;
7473;SDS011;3778;42.572;23.426;2023-02-28T13:48:36;16.33;;;8.50;;
7473;SDS011;3778;42.572;23.426;2023-02-28T13:54:07;19.57;;;9.00;;
7473;SDS011;3778;42.572;23.426;2023-02-28T13:56:48;28.77;;;11.03;;
7473;SDS011;3778;42.572;23.426;2023-02-28T13:59:25;27.47;;;10.00;;
7473;SDS011;3778;42.572;23.426;2023-02-28T14:02:02;24.73;;;9.60;;
7473;SDS011;3778;42.572;23.426;2023-02-28T14:04:45;28.43;;;9.07;;
7473;SDS011;3778;42.572;23.426;2023-02-28T14:07:19;22.67;;;9.63;;
7473;SDS011;3778;42.572;23.426;2023-02-28T14:09:51;20.70;;;9.20;;
7473;SDS011;3778;42.572;23.426;2023-02-28T14:15:39;27.67;;;9.80;;
7473;SDS011;3778;42.572;23.426;2023-02-28T14:18:25;26.47;;;9.83;;
7473;SDS011;3778;42.572;23.426;2023-02-28T14:20:58;21.57;;;8.67;;
7473;SDS011;3778;42.572;23.426;2023-02-28T14:23:42;22.83;;;9.50;;
7473;SDS011;3778;42.572;23.426;2023-02-28T14:26:26;19.73;;;9.30;;
7473;SDS011;3778;42.572;23.426;2023-02-28T14:29:04;18.87;;;9.30;;
7473;SDS011;3778;42.572;23.426;2023-02-28T14:31:46;20.67;;;10.17;;
7473;SDS011;3778;42.572;23.426;2023-02-28T14:34:31;22.80;;;9.20;;
7473;SDS011;3778;42.572;23.426;2023-02-28T14:37:05;21.83;;;9.50;;
7473;SDS011;3778;42.572;23.426;2023-02-28T14:39:40;23.10;;;10.30;;
7473;SDS011;3778;42.572;23.426;2023-02-28T14:44:55;20.10;;;9.77;;
7473;SDS011;3778;42.572;23.426;2023-02-28T14:47:25;20.57;;;9.10;;
7473;SDS011;3778;42.572;23.426;2023-02-28T14:49:55;21.87;;;9.03;;
7473;SDS011;3778;42.572;23.426;2023-02-28T14:52:23;21.37;;;9.63;;
7473;SDS011;3778;42.572;23.426;2023-02-28T14:54:54;22.03;;;9.90;;
7473;SDS011;3778;42.572;23.426;2023-02-28T14:57:24;13.73;;;8.60;;
7473;SDS011;3778;42.572;23.426;2023-02-28T15:00:03;20.67;;;9.90;;
7473;SDS011;3778;42.572;23.426;2023-02-28T15:02:37;18.47;;;8.97;;
7473;SDS011;3778;42.572;23.426;2023-02-28T15:05:25;28.13;;;10.30;;
7473;SDS011;3778;42.572;23.426;2023-02-28T15:08:04;21.00;;;8.47;;
7473;SDS011;3778;42.572;23.426;2023-02-28T15:10:33;34.17;;;11.80;;
7473;SDS011;3778;42.572;23.426;2023-02-28T15:13:01;14.87;;;7.50;;
7473;SDS011;3778;42.572;23.426;2023-02-28T15:15:34;15.77;;;7.57;;
7473;SDS011;3778;42.572;23.426;2023-02-28T15:18:08;19.03;;;8.50;;
7473;SDS011;3778;42.572;23.426;2023-02-28T15:20:42;14.80;;;8.60;;
7473;SDS011;3778;42.572;23.426;2023-02-28T15:23:10;15.87;;;7.60;;
7473;SDS011;3778;42.572;23.426;2023-02-28T15:25:37;21.53;;;8.43;;
7473;SDS011;3778;42.572;23.426;2023-02-28T15:28:09;14.73;;;8.87;;
7473;SDS011;3778;42.572;23.426;2023-02-28T15:30:50;13.87;;;8.23;;
7473;SDS011;3778;42.572;23.426;2023-02-28T15:33:21;15.93;;;8.00;;
7473;SDS011;3778;42.572;23.426;2023-02-28T15:35:50;18.67;;;8.57;;
7473;SDS011;3778;42.572;23.426;2023-02-28T15:38:18;15.83;;;7.47;;
7473;SDS011;3778;42.572;23.426;2023-02-28T15:40:50;17.43;;;7.03;;